Time;durP1;ratioP1;P1;durP2;ratioP2;P2;SDS_P1;SDS_P2;PMS_P1;PMS_P2;Temp;Humidity;BMP_temperature;BMP_pressure;BME280_temperature;BME280_humidity;BME280_pressure;Samples;Min_cycle;Max_cycle;Signal;HPM_P1;HPM_P2
2023/06/01 00:01:23;;;;;;;10.30;4.43;;;12.00;99.90;;;;;;4997158;28;20038;-71
2023/06/01 00:03:57;;;;;;;9.45;4.38;;;11.90;99.90;;;;;;4996360;28;20637;-71
2023/06/01 00:06:28;;;;;;;15.90;4.10;;;11.90;99.90;;;;;;4995541;28;20088;-71
2023/06/01 00:09:00;;;;;;;9.73;4.47;;;11.90;99.90;;;;;;4998843;28;20112;-71
2023/06/01 00:11:26;;;;;;;9.82;3.85;;;11.80;99.90;;;;;;4999175;28;20042;-73
2023/06/01 00:13:52;;;;;;;11.07;5.07;;;11.70;99.90;;;;;;4993156;28;20034;-71
2023/06/01 00:16:18;;;;;;;10.05;3.80;;;11.80;99.90;;;;;;4994293;28;20039;-71
2023/06/01 00:18:46;;;;;;;8.20;3.20;;;11.80;99.90;;;;;;4995362;28;20034;-70
2023/06/01 00:21:12;;;;;;;8.55;3.40;;;11.70;99.90;;;;;;5013914;28;20494;-71
2023/06/01 00:23:40;;;;;;;8.32;3.70;;;11.70;99.90;;;;;;4995016;28;20065;-72
2023/06/01 00:26:07;;;;;;;7.97;4.07;;;11.70;99.90;;;;;;4992624;28;20535;-71
2023/06/01 00:28:32;;;;;;;7.68;3.40;;;11.60;99.90;;;;;;4999341;28;20100;-71
2023/06/01 00:31:01;;;;;;;7.18;3.88;;;11.60;99.90;;;;;;4999747;28;20034;-73
2023/06/01 00:33:26;;;;;;;7.60;4.43;;;11.60;99.90;;;;;;5000113;28;20042;-70
2023/06/01 00:35:52;;;;;;;11.30;3.75;;;11.60;99.90;;;;;;4998524;28;20030;-71
2023/06/01 00:38:18;;;;;;;11.95;3.78;;;11.60;99.90;;;;;;4998034;28;20186;-71
2023/06/01 00:40:55;;;;;;;13.00;4.13;;;11.50;99.90;;;;;;4995693;28;20033;-71
2023/06/01 00:43:21;;;;;;;8.25;3.95;;;11.50;99.90;;;;;;4992533;28;20669;-72
2023/06/01 00:45:49;;;;;;;10.93;4.53;;;11.50;99.90;;;;;;4993013;28;20031;-70
2023/06/01 00:48:17;;;;;;;10.45;3.88;;;11.50;99.90;;;;;;4996433;28;20410;-71
2023/06/01 00:50:42;;;;;;;10.30;4.38;;;11.50;99.90;;;;;;4990811;28;20085;-71
2023/06/01 00:53:15;;;;;;;13.90;4.50;;;11.50;99.90;;;;;;5000006;28;20038;-71
2023/06/01 00:55:41;;;;;;;8.80;4.40;;;11.50;99.90;;;;;;4995154;28;20023;-71
2023/06/01 00:58:07;;;;;;;11.43;4.10;;;11.50;99.90;;;;;;4991388;28;20030;-71
2023/06/01 01:00:32;;;;;;;13.38;4.20;;;11.40;99.90;;;;;;4997328;28;20482;-72
2023/06/01 01:03:00;;;;;;;11.35;3.60;;;11.50;99.90;;;;;;4986943;28;20117;-74
2023/06/01 01:05:29;;;;;;;6.07;3.10;;;11.40;99.90;;;;;;4995040;28;20145;-72
2023/06/01 01:08:20;;;;;;;9.35;3.38;;;11.40;99.90;;;;;;4999318;28;20598;-71
2023/06/01 01:11:07;;;;;;;10.98;3.20;;;11.40;99.90;;;;;;4996931;28;20033;-71
2023/06/01 01:13:42;;;;;;;10.15;3.58;;;11.40;99.90;;;;;;4989896;28;20043;-71
2023/06/01 01:16:07;;;;;;;8.10;3.22;;;11.40;99.90;;;;;;4989756;28;20026;-71
2023/06/01 01:18:36;;;;;;;11.18;2.95;;;11.50;99.90;;;;;;4994535;28;20045;-71
2023/06/01 01:21:21;;;;;;;9.52;2.63;;;11.50;99.90;;;;;;4995043;28;20578;-72
2023/06/01 01:24:18;;;;;;;12.95;3.65;;;11.60;99.90;;;;;;4991265;28;20041;-71
2023/06/01 01:27:02;;;;;;;8.07;3.30;;;11.50;99.90;;;;;;5027633;28;20077;-71
2023/06/01 01:29:30;;;;;;;11.27;3.85;;;11.50;99.90;;;;;;5030200;28;20041;-71
2023/06/01 01:31:56;;;;;;;9.05;2.92;;;11.50;99.90;;;;;;5000936;28;20033;-71
2023/06/01 01:34:26;;;;;;;7.90;3.40;;;11.60;99.90;;;;;;5008410;28;20054;-70
2023/06/01 01:36:52;;;;;;;6.45;2.72;;;11.60;99.90;;;;;;5030901;28;20049;-72
2023/06/01 01:39:17;;;;;;;7.57;3.45;;;11.60;99.90;;;;;;5004462;28;20050;-70
2023/06/01 01:41:43;;;;;;;5.63;2.90;;;11.50;99.90;;;;;;5008014;28;20552;-71
2023/06/01 01:44:14;;;;;;;8.15;2.92;;;11.50;99.90;;;;;;5002179;28;20034;-71
2023/06/01 01:47:04;;;;;;;14.38;3.38;;;11.50;99.90;;;;;;4997390;28;20057;-73
2023/06/01 01:49:58;;;;;;;10.02;2.38;;;11.50;99.90;;;;;;4994817;28;20126;-72
2023/06/01 01:52:33;;;;;;;7.72;3.00;;;11.60;99.90;;;;;;5003148;28;20034;-72
2023/06/01 01:55:00;;;;;;;9.60;3.15;;;11.60;99.90;;;;;;4998519;28;20038;-72
2023/06/01 01:57:28;;;;;;;11.32;3.58;;;11.50;99.90;;;;;;5004183;28;20573;-71
2023/06/01 01:59:54;;;;;;;8.75;3.38;;;11.50;99.90;;;;;;4997331;28;20041;-71
2023/06/01 02:02:27;;;;;;;14.02;3.63;;;11.50;99.90;;;;;;5001321;28;20112;-71
2023/06/01 02:04:53;;;;;;;10.15;3.45;;;11.50;99.90;;;;;;4996091;28;20041;-70
2023/06/01 02:07:18;;;;;;;7.50;3.50;;;11.50;99.90;;;;;;4995781;28;20046;-72
2023/06/01 02:09:50;;;;;;;7.57;3.17;;;11.50;99.90;;;;;;4999406;28;20045;-72
2023/06/01 02:12:15;;;;;;;14.40;3.38;;;11.50;99.90;;;;;;5004321;28;20172;-71
2023/06/01 02:14:41;;;;;;;10.02;3.30;;;11.50;99.90;;;;;;4996150;28;20113;-71
2023/06/01 02:17:07;;;;;;;10.40;3.50;;;11.50;99.90;;;;;;5004880;28;20045;-71
2023/06/01 02:19:33;;;;;;;11.55;3.38;;;11.50;99.90;;;;;;4997615;28;20475;-71
2023/06/01 02:21:59;;;;;;;9.30;3.15;;;11.50;99.90;;;;;;5001256;28;20443;-74
2023/06/01 02:24:27;;;;;;;6.43;3.42;;;11.50;99.90;;;;;;4998879;28;20050;-71
2023/06/01 02:26:53;;;;;;;11.65;3.17;;;11.50;99.90;;;;;;4997264;28;20042;-71
2023/06/01 02:29:28;;;;;;;9.90;3.00;;;11.50;99.90;;;;;;4999228;28;20084;-71
2023/06/01 02:31:54;;;;;;;6.80;2.22;;;11.50;99.90;;;;;;4996842;28;20049;-71
2023/06/01 02:34:25;;;;;;;5.53;2.67;;;11.50;99.90;;;;;;4999433;28;20085;-71
2023/06/01 02:36:57;;;;;;;10.73;2.90;;;11.50;99.90;;;;;;4996794;28;20068;-73
2023/06/01 02:39:23;;;;;;;11.63;4.03;;;11.50;99.90;;;;;;5004475;28;20057;-71
2023/06/01 02:41:55;;;;;;;5.40;2.78;;;11.50;99.90;;;;;;4998055;28;20172;-71
2023/06/01 02:44:26;;;;;;;11.05;3.00;;;11.50;99.90;;;;;;4998608;28;20443;-72
2023/06/01 02:47:01;;;;;;;9.63;2.90;;;11.50;99.90;;;;;;4994428;28;20041;-71
2023/06/01 02:49:26;;;;;;;12.57;3.28;;;11.50;99.90;;;;;;4996536;28;20042;-71
2023/06/01 02:51:52;;;;;;;15.63;3.33;;;11.50;99.90;;;;;;4997412;28;20034;-71
2023/06/01 02:54:20;;;;;;;11.25;3.08;;;11.50;99.90;;;;;;4995833;28;20109;-71
2023/06/01 02:56:49;;;;;;;6.47;3.08;;;11.50;99.90;;;;;;4998905;28;20038;-71
2023/06/01 02:59:14;;;;;;;10.05;3.05;;;11.50;99.90;;;;;;4995854;28;20041;-71
2023/06/01 03:01:40;;;;;;;8.68;3.20;;;11.60;99.90;;;;;;5028311;28;20030;-71
2023/06/01 03:04:07;;;;;;;9.50;3.50;;;11.50;99.90;;;;;;4992137;28;20042;-71
2023/06/01 03:06:37;;;;;;;10.05;3.45;;;11.60;99.90;;;;;;4997183;28;20372;-72
2023/06/01 03:09:05;;;;;;;10.65;4.28;;;11.60;99.90;;;;;;5005328;28;20041;-71
2023/06/01 03:11:31;;;;;;;9.82;3.15;;;11.60;99.90;;;;;;4995158;28;20202;-72
2023/06/01 03:13:56;;;;;;;7.47;3.72;;;11.60;99.90;;;;;;5001451;28;20510;-71
2023/06/01 03:16:23;;;;;;;8.35;3.67;;;11.60;99.90;;;;;;4997078;28;20103;-71
2023/06/01 03:18:55;;;;;;;9.07;3.65;;;11.60;99.90;;;;;;5002105;28;20033;-71
2023/06/01 03:21:24;;;;;;;7.55;3.08;;;11.60;99.90;;;;;;4997496;28;20521;-71
2023/06/01 03:23:50;;;;;;;6.65;2.88;;;11.60;99.90;;;;;;4996015;28;20030;-72
2023/06/01 03:26:18;;;;;;;11.15;3.58;;;11.60;99.90;;;;;;4996486;28;20380;-71
2023/06/01 03:28:44;;;;;;;7.18;2.83;;;11.60;99.90;;;;;;4993869;28;20134;-71
2023/06/01 03:31:22;;;;;;;9.25;3.60;;;11.60;99.90;;;;;;4999185;28;20116;-72
2023/06/01 03:33:59;;;;;;;6.80;3.10;;;11.60;99.90;;;;;;4998755;28;20026;-71
2023/06/01 03:36:26;;;;;;;7.50;3.08;;;11.60;99.90;;;;;;4996737;28;20074;-71
2023/06/01 03:38:51;;;;;;;9.38;3.17;;;11.60;99.90;;;;;;4999873;28;20038;-72
2023/06/01 03:41:17;;;;;;;9.32;3.28;;;11.70;99.90;;;;;;4992178;28;20458;-72
2023/06/01 03:43:48;;;;;;;9.32;2.65;;;11.60;99.90;;;;;;4995221;28;20057;-71
2023/06/01 03:46:20;;;;;;;7.43;2.65;;;11.70;99.90;;;;;;4995581;28;20411;-71
2023/06/01 03:48:46;;;;;;;9.00;3.45;;;11.60;99.90;;;;;;4999378;28;20030;-72
2023/06/01 03:51:14;;;;;;;10.88;3.63;;;11.50;99.90;;;;;;4997812;28;20026;-71
2023/06/01 03:53:46;;;;;;;6.18;3.05;;;11.60;99.90;;;;;;4996457;28;20036;-71
2023/06/01 03:56:19;;;;;;;9.50;2.95;;;11.60;99.90;;;;;;4997075;28;20062;-72
2023/06/01 03:58:45;;;;;;;9.98;3.42;;;11.60;99.90;;;;;;4996501;28;20141;-72
2023/06/01 04:01:12;;;;;;;6.57;2.53;;;11.60;99.90;;;;;;4995691;28;20061;-72
2023/06/01 04:03:38;;;;;;;11.75;3.30;;;11.60;99.90;;;;;;4997179;28;20042;-72
2023/06/01 04:06:11;;;;;;;10.93;2.72;;;11.60;99.90;;;;;;4991516;28;20028;-72
2023/06/01 04:08:42;;;;;;;17.40;3.40;;;11.60;99.90;;;;;;5000821;28;20030;-73
2023/06/01 04:11:14;;;;;;;8.05;4.63;;;11.60;99.90;;;;;;4995277;28;20022;-72
2023/06/01 04:13:39;;;;;;;9.63;3.38;;;11.60;99.90;;;;;;4993816;28;20054;-71
2023/06/01 04:16:05;;;;;;;9.82;3.15;;;11.60;99.90;;;;;;4998302;28;20104;-72
2023/06/01 04:18:31;;;;;;;15.05;3.15;;;11.60;99.90;;;;;;4993850;28;20026;-73
2023/06/01 04:20:56;;;;;;;10.10;3.30;;;11.70;99.90;;;;;;4996812;28;20030;-72
2023/06/01 04:23:22;;;;;;;11.68;3.40;;;11.70;99.90;;;;;;4993723;28;20097;-72
2023/06/01 04:25:51;;;;;;;8.43;3.33;;;11.80;99.90;;;;;;4995620;28;20120;-71
2023/06/01 04:28:17;;;;;;;7.88;2.90;;;11.80;99.90;;;;;;4993394;28;20060;-71
2023/06/01 04:30:44;;;;;;;6.97;2.60;;;11.80;99.90;;;;;;4994750;28;20116;-72
2023/06/01 04:33:10;;;;;;;9.27;3.10;;;11.80;99.90;;;;;;4996774;28;20390;-71
2023/06/01 04:35:39;;;;;;;10.98;4.30;;;11.80;99.90;;;;;;5000324;28;20085;-71
2023/06/01 04:38:04;;;;;;;10.02;3.30;;;11.80;99.90;;;;;;5001984;28;20050;-71
2023/06/01 04:40:31;;;;;;;6.18;2.78;;;11.80;99.90;;;;;;4994260;28;20368;-72
2023/06/01 04:43:02;;;;;;;13.60;3.22;;;11.90;99.90;;;;;;5027862;28;20069;-72
2023/06/01 04:45:30;;;;;;;8.77;3.47;;;11.90;99.90;;;;;;4996119;28;20116;-71
2023/06/01 04:47:57;;;;;;;10.63;3.05;;;11.90;99.90;;;;;;5021674;28;20049;-71
2023/06/01 04:50:23;;;;;;;10.23;3.10;;;11.90;99.90;;;;;;4994484;28;20042;-70
2023/06/01 04:52:49;;;;;;;7.00;3.15;;;12.00;99.90;;;;;;4998637;28;20490;-72
2023/06/01 04:55:16;;;;;;;8.77;3.40;;;12.00;99.90;;;;;;4999930;28;20049;-72
2023/06/01 04:57:45;;;;;;;15.18;3.60;;;12.00;99.90;;;;;;5000011;28;20053;-72
2023/06/01 05:00:13;;;;;;;11.93;3.15;;;12.00;99.90;;;;;;5003376;28;20037;-70
2023/06/01 05:02:43;;;;;;;12.75;3.58;;;12.00;99.90;;;;;;5000108;28;20038;-72
2023/06/01 05:05:09;;;;;;;;;;;12.10;99.90;;;;;;4999262;28;20041;-71
2023/06/01 05:07:38;;;;;;;10.68;3.28;;;12.10;99.90;;;;;;5005141;28;19917;-71
2023/06/01 05:10:09;;;;;;;11.52;3.40;;;12.20;99.90;;;;;;5002731;28;20077;-71
2023/06/01 05:12:36;;;;;;;6.40;3.42;;;12.30;99.90;;;;;;5000566;28;20030;-71
2023/06/01 05:15:04;;;;;;;6.00;2.85;;;12.40;99.90;;;;;;5001583;28;20053;-72
2023/06/01 05:17:29;;;;;;;11.90;2.90;;;12.40;99.90;;;;;;5001588;28;20037;-70
2023/06/01 05:19:56;;;;;;;7.63;2.55;;;12.40;99.90;;;;;;5002896;28;20627;-70
2023/06/01 05:22:25;;;;;;;11.45;2.97;;;12.40;99.90;;;;;;5004548;28;20124;-71
2023/06/01 05:24:51;;;;;;;8.57;2.85;;;12.40;99.90;;;;;;5003273;28;20042;-71
2023/06/01 05:27:23;;;;;;;8.50;2.38;;;12.50;99.90;;;;;;5002386;28;20034;-70
2023/06/01 05:29:48;;;;;;;4.88;2.65;;;12.50;99.90;;;;;;5001179;28;20490;-71
2023/06/01 05:32:14;;;;;;;13.20;3.15;;;12.60;99.90;;;;;;5001722;28;20042;-71
2023/06/01 05:34:39;;;;;;;12.27;2.55;;;12.70;99.90;;;;;;5003587;28;20037;-71
2023/06/01 05:37:05;;;;;;;14.45;2.92;;;12.70;99.90;;;;;;5000326;28;20056;-71
2023/06/01 05:39:31;;;;;;;10.38;4.10;;;12.80;99.90;;;;;;5005231;28;20036;-70
2023/06/01 05:41:57;;;;;;;5.72;2.13;;;12.80;99.90;;;;;;5003058;28;20034;-71
2023/06/01 05:44:23;;;;;;;5.30;2.15;;;12.80;99.90;;;;;;5001423;28;20535;-71
2023/06/01 05:46:49;;;;;;;7.70;2.65;;;12.80;99.90;;;;;;5004727;28;20033;-71
2023/06/01 05:49:15;;;;;;;9.75;2.80;;;12.90;99.90;;;;;;5002981;28;20042;-72
2023/06/01 05:51:40;;;;;;;9.23;2.72;;;13.00;99.90;;;;;;5002845;28;20074;-70
2023/06/01 05:54:06;;;;;;;9.82;2.80;;;13.10;99.90;;;;;;5001447;28;20484;-72
2023/06/01 05:56:32;;;;;;;9.98;2.38;;;13.10;99.90;;;;;;4999633;28;20048;-73
2023/06/01 05:58:59;;;;;;;10.43;2.40;;;13.20;99.90;;;;;;5000333;28;20041;-70
2023/06/01 06:01:27;;;;;;;9.23;2.53;;;13.10;99.90;;;;;;5001702;28;20048;-71
2023/06/01 06:03:52;;;;;;;5.03;2.08;;;13.20;99.90;;;;;;5002829;28;20108;-71
2023/06/01 06:06:18;;;;;;;6.30;2.58;;;13.10;99.90;;;;;;4999435;28;20026;-72
2023/06/01 06:08:47;;;;;;;6.50;2.88;;;13.10;99.90;;;;;;5001369;28;20038;-71
2023/06/01 06:11:15;;;;;;;6.65;2.33;;;13.20;99.90;;;;;;5003309;28;20034;-71
2023/06/01 06:13:40;;;;;;;8.65;2.90;;;13.30;99.90;;;;;;5004305;28;20041;-71
2023/06/01 06:16:06;;;;;;;13.93;3.88;;;13.40;99.90;;;;;;5004539;28;20022;-70
2023/06/01 06:18:32;;;;;;;7.88;2.70;;;13.40;99.90;;;;;;5006271;28;20509;-73
2023/06/01 06:20:57;;;;;;;8.70;2.30;;;13.40;99.90;;;;;;5003309;28;20033;-71
2023/06/01 06:23:23;;;;;;;7.65;2.50;;;13.50;99.90;;;;;;5006477;28;20097;-73
2023/06/01 06:25:51;;;;;;;8.27;2.60;;;13.50;99.90;;;;;;5004215;28;20030;-72
2023/06/01 06:28:17;;;;;;;7.47;2.92;;;13.50;99.90;;;;;;5004057;28;20038;-71
2023/06/01 06:30:45;;;;;;;8.73;2.53;;;13.60;99.90;;;;;;5007030;28;20034;-71
2023/06/01 06:33:19;;;;;;;6.55;2.40;;;13.80;99.90;;;;;;5005790;28;20070;-71
2023/06/01 06:35:45;;;;;;;5.20;2.35;;;13.90;99.90;;;;;;5010862;28;20068;-70
2023/06/01 06:38:12;;;;;;;8.13;2.80;;;14.00;99.90;;;;;;5005224;28;20445;-70
2023/06/01 06:40:38;;;;;;;6.00;2.70;;;14.20;99.90;;;;;;5004556;28;20706;-70
2023/06/01 06:43:03;;;;;;;10.88;3.10;;;14.30;99.90;;;;;;5006025;28;20044;-73
2023/06/01 06:45:29;;;;;;;12.13;2.85;;;14.30;99.90;;;;;;5003809;28;20041;-72
2023/06/01 06:47:57;;;;;;;8.82;2.60;;;14.50;99.90;;;;;;5003577;28;20038;-71
2023/06/01 06:50:23;;;;;;;6.07;2.30;;;14.60;99.90;;;;;;5001243;28;20520;-69
2023/06/01 06:52:51;;;;;;;5.95;2.25;;;14.60;99.90;;;;;;5006913;28;20034;-70
2023/06/01 06:55:17;;;;;;;12.57;2.30;;;14.60;99.90;;;;;;5001667;28;20045;-71
2023/06/01 06:57:43;;;;;;;5.18;2.03;;;14.60;99.90;;;;;;5003711;28;20038;-70
2023/06/01 07:00:14;;;;;;;13.35;3.65;;;14.70;99.90;;;;;;5003556;28;20041;-71
2023/06/01 07:02:41;;;;;;;5.75;2.17;;;14.70;99.90;;;;;;5001509;28;20624;-70
2023/06/01 07:05:08;;;;;;;7.00;2.42;;;14.70;99.90;;;;;;5000437;28;20566;-69
2023/06/01 07:07:37;;;;;;;6.60;2.55;;;14.70;99.90;;;;;;5005207;28;20057;-70
2023/06/01 07:10:04;;;;;;;8.35;2.28;;;14.90;99.90;;;;;;4999368;28;20034;-69
2023/06/01 07:12:30;;;;;;;11.18;2.38;;;14.90;99.90;;;;;;5003061;28;20027;-70
2023/06/01 07:14:58;;;;;;;9.93;2.20;;;15.00;99.90;;;;;;5003753;28;20038;-71
2023/06/01 07:17:23;;;;;;;6.35;1.58;;;14.90;99.90;;;;;;5003497;28;20530;-71
2023/06/01 07:19:49;;;;;;;6.78;1.98;;;15.00;99.90;;;;;;5004616;28;20038;-72
2023/06/01 07:22:15;;;;;;;5.40;1.95;;;15.10;99.90;;;;;;5005745;28;20469;-71
2023/06/01 07:24:41;;;;;;;9.68;1.83;;;15.40;99.90;;;;;;5004123;28;20038;-71
2023/06/01 07:27:07;;;;;;;4.20;1.65;;;15.70;99.90;;;;;;5003647;28;20054;-71
2023/06/01 07:29:33;;;;;;;9.70;1.98;;;16.10;99.90;;;;;;5005277;28;20034;-71
2023/06/01 07:31:59;;;;;;;6.07;1.55;;;16.30;99.90;;;;;;5004538;28;20038;-71
2023/06/01 07:34:33;;;;;;;8.55;1.70;;;16.50;99.90;;;;;;5000416;28;20040;-71
2023/06/01 07:36:58;;;;;;;4.47;2.05;;;16.40;99.90;;;;;;5003126;28;20486;-71
2023/06/01 07:39:27;;;;;;;6.25;1.85;;;16.40;99.90;;;;;;4998553;28;20044;-70
2023/06/01 07:41:53;;;;;;;5.20;2.13;;;16.40;99.90;;;;;;5000026;28;20052;-71
2023/06/01 07:44:20;;;;;;;3.80;1.40;;;16.30;99.90;;;;;;5003392;28;20046;-71
2023/06/01 07:46:46;;;;;;;7.47;1.65;;;16.40;99.90;;;;;;5000859;28;20049;-71
2023/06/01 07:49:15;;;;;;;5.55;1.48;;;16.60;99.90;;;;;;5004381;28;20060;-71
2023/06/01 07:51:42;;;;;;;3.60;1.35;;;16.60;99.90;;;;;;5002286;28;20125;-70
2023/06/01 07:54:11;;;;;;;5.88;1.92;;;16.50;99.90;;;;;;5002362;28;20052;-70
2023/06/01 07:56:36;;;;;;;4.32;1.38;;;16.40;99.90;;;;;;5004090;28;20037;-71
2023/06/01 07:59:02;;;;;;;3.50;1.20;;;16.40;99.90;;;;;;5003451;28;20037;-70
2023/06/01 08:01:28;;;;;;;4.40;1.77;;;16.50;99.90;;;;;;5001488;28;20034;-71
2023/06/01 08:03:55;;;;;;;7.63;1.58;;;16.50;99.90;;;;;;5004159;28;20620;-70
2023/06/01 08:06:24;;;;;;;7.05;2.00;;;16.70;99.90;;;;;;5002934;28;20037;-70
2023/06/01 08:08:51;;;;;;;2.78;1.10;;;17.40;99.90;;;;;;5005796;28;20390;-71
2023/06/01 08:11:17;;;;;;;8.60;1.77;;;18.20;99.90;;;;;;4999227;28;20026;-72
2023/06/01 08:13:45;;;;;;;2.85;1.25;;;18.90;98.80;;;;;;5001617;28;20036;-72
2023/06/01 08:16:12;;;;;;;7.75;1.70;;;19.40;98.60;;;;;;5000769;28;20550;-71
2023/06/01 08:18:41;;;;;;;3.95;1.13;;;19.40;96.70;;;;;;5001205;28;20034;-71
2023/06/01 08:21:09;;;;;;;7.35;1.70;;;19.50;96.90;;;;;;5004796;28;20030;-71
2023/06/01 08:23:35;;;;;;;2.70;1.52;;;19.60;96.50;;;;;;5005260;28;20512;-69
2023/06/01 08:26:01;;;;;;;5.78;1.45;;;19.60;96.80;;;;;;5003817;28;20487;-72
2023/06/01 08:28:26;;;;;;;4.43;1.23;;;19.60;96.70;;;;;;5007994;28;20080;-70
2023/06/01 08:30:58;;;;;;;7.97;1.75;;;19.60;96.30;;;;;;5007686;28;20038;-71
2023/06/01 08:33:23;;;;;;;3.00;1.02;;;19.60;97.20;;;;;;5001684;28;20042;-71
2023/06/01 08:35:52;;;;;;;3.58;1.73;;;19.50;96.20;;;;;;5000754;28;20740;-71
2023/06/01 08:38:18;;;;;;;2.08;1.08;;;19.40;96.10;;;;;;5000517;28;20625;-71
2023/06/01 08:40:43;;;;;;;3.58;1.38;;;19.10;96.60;;;;;;5003214;28;20064;-70
2023/06/01 08:43:14;;;;;;;4.20;1.27;;;18.90;97.60;;;;;;5021166;28;20070;-72
2023/06/01 08:45:40;;;;;;;;;;;18.90;97.90;;;;;;5002424;28;20437;-70
2023/06/01 08:48:11;;;;;;;4.97;1.00;;;19.00;97.30;;;;;;5004599;28;19921;-69
2023/06/01 08:50:37;;;;;;;4.10;1.48;;;19.00;97.40;;;;;;4999718;28;20104;-71
2023/06/01 08:53:05;;;;;;;4.57;1.30;;;19.00;97.50;;;;;;5002586;28;20034;-73
2023/06/01 08:55:31;;;;;;;5.00;0.93;;;18.90;97.10;;;;;;5000531;28;20052;-71
2023/06/01 08:57:57;;;;;;;3.38;1.27;;;19.00;97.40;;;;;;5002258;28;20538;-71
2023/06/01 09:00:24;;;;;;;6.30;1.50;;;19.10;97.80;;;;;;5001474;28;20061;-73
2023/06/01 09:02:50;;;;;;;2.17;0.77;;;19.30;97.00;;;;;;5002269;28;20042;-72
2023/06/01 09:05:17;;;;;;;3.38;1.17;;;19.50;97.60;;;;;;5003325;28;20041;-71
2023/06/01 09:07:42;;;;;;;5.50;1.42;;;19.70;96.60;;;;;;5000917;28;20088;-72
2023/06/01 09:10:08;;;;;;;2.53;1.00;;;19.70;96.50;;;;;;5003552;28;20029;-71
2023/06/01 09:12:40;;;;;;;8.13;2.17;;;20.00;97.20;;;;;;4999909;28;20117;-72
2023/06/01 09:15:18;;;;;;;3.88;1.17;;;20.00;96.40;;;;;;5002719;28;20132;-73
2023/06/01 09:17:52;;;;;;;4.72;1.70;;;19.80;96.40;;;;;;5001553;28;20038;-73
2023/06/01 09:20:28;;;;;;;2.10;0.80;;;19.60;96.70;;;;;;5002604;28;20038;-70
2023/06/01 09:23:00;;;;;;;8.75;1.00;;;19.40;96.70;;;;;;5003191;28;20133;-71
2023/06/01 09:25:31;;;;;;;3.83;1.38;;;19.20;96.70;;;;;;5001330;28;20117;-73
2023/06/01 09:27:58;;;;;;;3.15;1.13;;;19.10;97.50;;;;;;5004952;28;20416;-71
2023/06/01 09:30:25;;;;;;;2.63;1.08;;;19.20;97.80;;;;;;5003923;28;20258;-70
2023/06/01 09:33:06;;;;;;;4.57;1.35;;;19.20;97.30;;;;;;5002090;28;20088;-70
2023/06/01 09:35:48;;;;;;;3.67;0.93;;;19.10;96.80;;;;;;5000414;28;20054;-74
2023/06/01 09:38:24;;;;;;;4.57;0.90;;;19.00;97.70;;;;;;4997323;28;20145;-71
2023/06/01 09:41:03;;;;;;;3.47;1.00;;;19.20;97.50;;;;;;5000255;28;20137;-71
2023/06/01 09:43:30;;;;;;;4.90;0.98;;;19.30;97.40;;;;;;5003355;28;20188;-71
2023/06/01 09:46:07;;;;;;;2.55;1.10;;;19.20;97.50;;;;;;4999786;28;20095;-71
2023/06/01 09:48:33;;;;;;;3.22;1.35;;;19.50;98.00;;;;;;5000382;28;20042;-72
2023/06/01 09:50:59;;;;;;;4.55;1.58;;;19.40;96.90;;;;;;5007771;28;20030;-71
2023/06/01 09:53:25;;;;;;;6.95;1.48;;;19.60;97.10;;;;;;5004597;28;20030;-72
2023/06/01 09:56:01;;;;;;;3.13;1.25;;;19.70;97.10;;;;;;5004869;28;20049;-71
2023/06/01 09:58:27;;;;;;;4.03;1.02;;;19.60;96.90;;;;;;5006838;28;20128;-72
2023/06/01 10:00:53;;;;;;;6.35;1.70;;;19.50;96.80;;;;;;5001834;28;20390;-71
2023/06/01 10:03:22;;;;;;;4.88;1.40;;;19.30;96.60;;;;;;5004596;28;20037;-72
2023/06/01 10:05:49;;;;;;;3.53;0.98;;;19.40;97.00;;;;;;4999892;28;20351;-72
2023/06/01 10:08:17;;;;;;;3.55;1.20;;;19.30;96.80;;;;;;5001907;28;20037;-71
2023/06/01 10:10:45;;;;;;;3.50;1.33;;;19.50;96.30;;;;;;5008708;28;20029;-70
2023/06/01 10:13:12;;;;;;;3.45;1.15;;;19.40;96.50;;;;;;5004721;28;20042;-70
2023/06/01 10:15:37;;;;;;;5.82;1.80;;;19.60;96.60;;;;;;4997983;28;20504;-72
2023/06/01 10:18:04;;;;;;;4.63;1.67;;;19.50;96.30;;;;;;5007245;28;20042;-71
2023/06/01 10:20:34;;;;;;;3.85;1.52;;;19.40;96.30;;;;;;5003944;28;20042;-72
2023/06/01 10:23:01;;;;;;;;;;;19.30;96.80;;;;;;5000457;28;20042;-71
2023/06/01 10:25:31;;;;;;;4.85;1.40;;;19.50;97.40;;;;;;5005714;28;20597;-71
2023/06/01 10:28:07;;;;;;;2.25;1.27;;;19.50;96.50;;;;;;5007130;28;20415;-71
2023/06/01 10:30:33;;;;;;;4.57;1.48;;;19.50;96.70;;;;;;5004165;28;20042;-70
2023/06/01 10:32:59;;;;;;;5.15;1.38;;;19.50;96.70;;;;;;5003501;28;20123;-72
2023/06/01 10:35:33;;;;;;;7.85;1.75;;;19.50;96.50;;;;;;5004567;28;20039;-71
2023/06/01 10:38:12;;;;;;;5.28;1.60;;;19.60;96.20;;;;;;5003780;28;20034;-70
2023/06/01 10:40:40;;;;;;;4.80;1.27;;;19.40;96.20;;;;;;5002858;28;20487;-70
2023/06/01 10:43:08;;;;;;;7.10;1.50;;;19.20;96.20;;;;;;5004345;28;20030;-71
2023/06/01 10:45:34;;;;;;;4.38;1.67;;;19.10;96.10;;;;;;5004877;28;20097;-70
2023/06/01 10:48:00;;;;;;;2.92;0.85;;;19.00;97.00;;;;;;5003032;28;20034;-72
2023/06/01 10:50:26;;;;;;;7.65;1.35;;;19.20;96.50;;;;;;5004901;28;20394;-71
2023/06/01 10:52:54;;;;;;;6.25;1.27;;;19.20;96.60;;;;;;5005295;28;20030;-71
2023/06/01 10:55:21;;;;;;;4.45;1.10;;;19.10;96.60;;;;;;5000808;28;20936;-73
2023/06/01 10:57:47;;;;;;;8.30;1.73;;;19.30;97.10;;;;;;4999503;28;20042;-72
2023/06/01 11:00:26;;;;;;;4.00;1.60;;;19.50;96.60;;;;;;5000636;28;20065;-72
2023/06/01 11:03:09;;;;;;;3.67;1.15;;;19.50;96.30;;;;;;5002737;28;20133;-71
2023/06/01 11:05:47;;;;;;;3.28;1.38;;;19.40;95.90;;;;;;5002616;28;20112;-72
2023/06/01 11:08:29;;;;;;;5.50;1.30;;;19.10;96.00;;;;;;5024052;28;20383;-72
2023/06/01 11:11:05;;;;;;;3.90;1.02;;;19.10;96.50;;;;;;5004236;28;20073;-72
2023/06/01 11:13:39;;;;;;;6.38;1.38;;;19.10;96.80;;;;;;5001119;28;20061;-72
2023/06/01 11:16:13;;;;;;;2.20;0.80;;;19.10;96.80;;;;;;4999991;28;20045;-71
2023/06/01 11:18:41;;;;;;;10.88;2.05;;;19.20;96.30;;;;;;5027541;28;20077;-71
2023/06/01 11:21:23;;;;;;;5.45;1.08;;;19.10;96.20;;;;;;5003152;28;20037;-74
2023/06/01 11:23:54;;;;;;;2.35;0.75;;;19.00;96.20;;;;;;5004819;28;20038;-72
2023/06/01 11:26:24;;;;;;;2.67;1.15;;;18.90;96.60;;;;;;5006737;28;20034;-72
2023/06/01 11:28:51;;;;;;;3.47;0.93;;;18.80;96.60;;;;;;5002049;28;20038;-71
2023/06/01 11:31:19;;;;;;;20.80;1.45;;;18.60;96.80;;;;;;5005828;28;20088;-70
2023/06/01 11:33:52;;;;;;;5.10;1.25;;;18.80;97.20;;;;;;5003635;28;20054;-71
2023/06/01 11:36:23;;;;;;;5.18;1.45;;;18.90;97.00;;;;;;5001948;28;20044;-73
2023/06/01 11:38:49;;;;;;;4.38;1.45;;;18.90;96.90;;;;;;4999189;28;20109;-71
2023/06/01 11:41:15;;;;;;;4.45;1.02;;;19.00;96.60;;;;;;5004111;28;20117;-72
2023/06/01 11:43:40;;;;;;;4.55;0.90;;;19.00;96.80;;;;;;5002456;28;20175;-71
2023/06/01 11:46:11;;;;;;;2.60;1.02;;;18.90;96.70;;;;;;5005448;28;20126;-71
2023/06/01 11:48:37;;;;;;;3.42;1.27;;;18.70;96.80;;;;;;5002727;28;20032;-71
2023/06/01 11:51:04;;;;;;;4.47;1.10;;;18.80;96.80;;;;;;5004049;28;20041;-72
2023/06/01 11:53:33;;;;;;;2.33;0.73;;;18.80;96.70;;;;;;5000506;28;20100;-72
2023/06/01 11:55:59;;;;;;;4.90;1.08;;;18.70;97.00;;;;;;5005562;28;20033;-73
2023/06/01 11:58:29;;;;;;;3.78;1.17;;;18.70;96.80;;;;;;5002693;28;20120;-72
2023/06/01 12:00:56;;;;;;;8.13;1.15;;;18.70;97.10;;;;;;5003227;28;20145;-73
2023/06/01 12:03:26;;;;;;;2.00;0.80;;;18.90;97.10;;;;;;5003495;28;20117;-72
2023/06/01 12:05:52;;;;;;;4.25;1.52;;;19.30;96.80;;;;;;5003480;28;20533;-72
2023/06/01 12:08:28;;;;;;;1.52;0.80;;;19.40;97.20;;;;;;5003785;28;20037;-73
2023/06/01 12:10:54;;;;;;;3.35;1.15;;;19.60;96.80;;;;;;5002199;28;20080;-72
2023/06/01 12:13:20;;;;;;;3.38;0.50;;;19.40;96.50;;;;;;5001288;28;20052;-71
2023/06/01 12:15:46;;;;;;;3.55;0.98;;;19.20;96.90;;;;;;5001309;28;20043;-71
2023/06/01 12:18:30;;;;;;;2.15;0.60;;;19.20;96.90;;;;;;5003165;28;20042;-72
2023/06/01 12:21:09;;;;;;;1.10;0.50;;;19.10;96.70;;;;;;5002372;28;20069;-71
2023/06/01 12:23:35;;;;;;;2.73;0.80;;;18.90;97.00;;;;;;5004447;28;20156;-73
2023/06/01 12:26:00;;;;;;;2.15;0.80;;;18.80;97.70;;;;;;5002739;28;20120;-72
2023/06/01 12:28:29;;;;;;;1.40;0.75;;;18.80;98.10;;;;;;5000590;28;20033;-71
2023/06/01 12:31:15;;;;;;;0.90;0.50;;;18.70;97.90;;;;;;5002860;28;20033;-72
2023/06/01 12:33:42;;;;;;;2.75;0.88;;;18.70;98.20;;;;;;5003248;28;20042;-69
2023/06/01 12:36:08;;;;;;;3.92;0.70;;;18.60;98.40;;;;;;5002592;28;20033;-72
2023/06/01 12:38:54;;;;;;;3.25;1.08;;;18.30;98.70;;;;;;5024043;28;20038;-70
2023/06/01 12:41:21;;;;;;;2.92;0.75;;;18.20;99.20;;;;;;4996616;28;20513;-69
2023/06/01 12:43:49;;;;;;;1.90;0.63;;;18.20;99.30;;;;;;5002264;28;20038;-70
2023/06/01 12:46:22;;;;;;;2.50;1.13;;;18.20;99.60;;;;;;5000552;28;20037;-71
2023/06/01 12:48:48;;;;;;;1.00;0.50;;;18.10;99.70;;;;;;5003226;28;20514;-70
2023/06/01 12:51:15;;;;;;;1.45;0.70;;;17.90;99.90;;;;;;5004906;28;20821;-70
2023/06/01 12:53:42;;;;;;;2.63;0.57;;;17.90;99.90;;;;;;5001015;28;20557;-72